createdAt,value
2023-03-27T00:01:13.140Z,2.90
2023-03-27T00:03:40.798Z,2.57
2023-03-27T00:06:09.701Z,2.67
2023-03-27T00:08:36.722Z,2.60
2023-03-27T00:11:04.694Z,1.97
2023-03-27T00:13:32.038Z,2.37
2023-03-27T00:16:00.275Z,2.93
2023-03-27T00:18:28.259Z,2.30
2023-03-27T00:20:58.605Z,2.37
2023-03-27T00:23:26.118Z,2.73
2023-03-27T00:25:55.938Z,1.70
2023-03-27T00:28:23.047Z,2.57
2023-03-27T00:30:50.031Z,2.57
2023-03-27T00:33:18.252Z,2.40
2023-03-27T00:35:46.752Z,2.70
2023-03-27T00:38:15.057Z,2.10
2023-03-27T00:40:44.212Z,2.17
2023-03-27T00:43:26.167Z,1.93
2023-03-27T00:45:56.786Z,2.30
2023-03-27T00:48:26.020Z,2.13
2023-03-27T00:50:53.862Z,2.30
2023-03-27T00:53:24.401Z,1.90
2023-03-27T00:55:53.392Z,2.03
2023-03-27T00:58:25.894Z,2.10
2023-03-27T01:00:54.705Z,1.90
2023-03-27T01:03:26.177Z,1.57
2023-03-27T01:05:54.164Z,1.77
2023-03-27T01:08:21.851Z,1.87
2023-03-27T01:10:59.071Z,1.50
2023-03-27T01:13:45.907Z,1.80
2023-03-27T01:16:19.260Z,2.33
2023-03-27T01:18:59.697Z,1.50
2023-03-27T01:21:51.764Z,1.70
2023-03-27T01:24:45.544Z,1.50
2023-03-27T01:27:19.215Z,1.20
2023-03-27T01:30:02.711Z,1.70
2023-03-27T01:33:08.462Z,1.47
2023-03-27T01:36:00.427Z,1.50
2023-03-27T01:39:06.418Z,1.30
2023-03-27T01:41:39.847Z,1.30
2023-03-27T01:44:14.820Z,1.00
2023-03-27T01:46:46.683Z,1.67
2023-03-27T01:49:15.417Z,1.17
2023-03-27T01:51:46.235Z,1.57
2023-03-27T01:54:19.181Z,1.00
2023-03-27T01:56:53.631Z,1.10
2023-03-27T01:59:24.593Z,1.67
2023-03-27T02:01:56.085Z,1.27
2023-03-27T02:04:28.809Z,1.00
2023-03-27T02:07:00.584Z,1.47
2023-03-27T02:09:33.634Z,1.17
2023-03-27T02:12:07.475Z,1.50
2023-03-27T02:14:39.410Z,1.03
2023-03-27T02:17:10.288Z,0.90
2023-03-27T02:19:40.911Z,1.07
2023-03-27T02:22:08.041Z,0.97
2023-03-27T02:24:34.833Z,1.30
2023-03-27T02:27:12.804Z,1.07
2023-03-27T02:29:51.694Z,1.10
2023-03-27T02:32:28.653Z,1.30
2023-03-27T02:35:03.361Z,1.40
2023-03-27T02:37:41.991Z,1.60
2023-03-27T02:40:15.654Z,1.30
2023-03-27T02:42:56.528Z,1.83
2023-03-27T02:45:29.106Z,1.27
2023-03-27T02:47:59.511Z,1.27
2023-03-27T02:50:32.036Z,1.13
2023-03-27T02:53:01.833Z,1.53
2023-03-27T02:55:33.196Z,1.27
2023-03-27T02:58:07.423Z,1.47
2023-03-27T03:00:39.746Z,1.10
2023-03-27T03:03:10.962Z,1.50
2023-03-27T03:05:38.145Z,1.20
2023-03-27T03:08:05.753Z,1.10
2023-03-27T03:10:33.308Z,1.97
2023-03-27T03:13:00.152Z,1.20
2023-03-27T03:15:28.556Z,1.37
2023-03-27T03:17:55.581Z,1.20
2023-03-27T03:20:23.911Z,1.30
2023-03-27T03:22:50.801Z,1.53
2023-03-27T03:25:17.901Z,1.20
2023-03-27T03:27:45.803Z,1.47
2023-03-27T03:30:17.036Z,1.60
2023-03-27T03:32:47.496Z,1.30
2023-03-27T03:35:14.640Z,0.93
2023-03-27T03:37:41.507Z,1.70
2023-03-27T03:40:12.115Z,0.97
2023-03-27T03:42:44.802Z,1.23
2023-03-27T03:45:11.819Z,1.40
2023-03-27T03:47:38.858Z,1.40
2023-03-27T03:50:08.078Z,1.13
2023-03-27T03:52:34.993Z,1.83
2023-03-27T03:55:03.993Z,1.27
2023-03-27T03:57:31.257Z,1.40
2023-03-27T03:59:58.457Z,1.30
2023-03-27T04:02:31.312Z,1.10
2023-03-27T04:04:59.266Z,1.30
2023-03-27T04:07:35.561Z,1.10
2023-03-27T04:10:02.837Z,1.00
2023-03-27T04:12:29.827Z,0.90
2023-03-27T04:14:56.994Z,1.37
2023-03-27T04:17:26.639Z,0.90
2023-03-27T04:19:57.384Z,1.40
2023-03-27T04:22:26.168Z,0.80
2023-03-27T04:24:54.422Z,1.30
2023-03-27T04:27:21.365Z,1.43
2023-03-27T04:29:48.363Z,1.33
2023-03-27T04:32:18.992Z,0.90
2023-03-27T04:34:46.689Z,0.80
2023-03-27T04:37:14.505Z,1.07
2023-03-27T04:39:46.206Z,1.27
2023-03-27T04:42:15.086Z,0.90
2023-03-27T04:44:42.406Z,1.20
2023-03-27T04:47:09.382Z,1.30
2023-03-27T04:49:40.662Z,1.20
2023-03-27T04:52:08.191Z,1.00
2023-03-27T04:54:35.408Z,1.07
2023-03-27T04:57:03.539Z,1.57
2023-03-27T04:59:31.991Z,0.80
2023-03-27T05:01:59.523Z,1.93
2023-03-27T05:04:26.398Z,1.27
2023-03-27T05:06:53.498Z,0.80
2023-03-27T05:09:20.559Z,1.23
2023-03-27T05:11:49.896Z,1.17
2023-03-27T05:14:17.003Z,1.10
2023-03-27T05:16:45.839Z,1.23
2023-03-27T05:19:13.204Z,0.90
2023-03-27T05:21:40.043Z,1.57
2023-03-27T05:24:07.963Z,1.00
2023-03-27T05:26:36.414Z,1.10
2023-03-27T05:29:05.875Z,1.20
2023-03-27T05:31:33.710Z,0.73
2023-03-27T05:34:02.574Z,1.37
2023-03-27T05:36:29.872Z,1.10
2023-03-27T05:38:57.867Z,1.70
2023-03-27T05:41:25.041Z,1.33
2023-03-27T05:43:51.907Z,0.83
2023-03-27T05:46:20.769Z,0.90
2023-03-27T05:48:48.724Z,1.47
2023-03-27T05:51:17.487Z,1.23
2023-03-27T05:53:44.341Z,1.10
2023-03-27T05:56:11.387Z,1.20
2023-03-27T05:58:38.744Z,1.07
2023-03-27T06:01:05.868Z,1.23
2023-03-27T06:03:37.269Z,1.40
2023-03-27T06:06:08.488Z,1.27
2023-03-27T06:08:37.399Z,1.40
2023-03-27T06:11:09.709Z,1.37
2023-03-27T06:13:36.819Z,1.40
2023-03-27T06:16:05.696Z,1.23
2023-03-27T06:18:33.512Z,1.73
2023-03-27T06:21:01.030Z,1.27
2023-03-27T06:23:27.997Z,0.97
2023-03-27T06:25:56.484Z,1.50
2023-03-27T06:28:23.399Z,1.40
2023-03-27T06:30:50.748Z,1.10
2023-03-27T06:33:17.700Z,1.10
2023-03-27T06:35:53.285Z,1.13
2023-03-27T06:38:21.275Z,1.43
2023-03-27T06:40:48.439Z,1.53
2023-03-27T06:43:19.085Z,2.20
2023-03-27T06:45:49.182Z,1.50
2023-03-27T06:48:21.204Z,1.30
2023-03-27T06:50:50.948Z,1.17
2023-03-27T06:53:27.230Z,1.27
2023-03-27T06:55:55.866Z,8.90
2023-03-27T06:58:26.253Z,8.27
2023-03-27T07:00:53.143Z,1.37
2023-03-27T07:03:21.503Z,1.60
2023-03-27T07:05:49.585Z,1.50
2023-03-27T07:08:24.158Z,1.40
2023-03-27T07:11:03.889Z,1.40
2023-03-27T07:13:41.368Z,1.27
2023-03-27T07:16:09.697Z,1.07
2023-03-27T07:18:36.676Z,1.00
2023-03-27T07:21:03.943Z,1.33
2023-03-27T07:23:30.948Z,1.10
2023-03-27T07:25:58.301Z,1.20
2023-03-27T07:28:25.490Z,1.07
2023-03-27T07:30:53.897Z,1.03
2023-03-27T07:33:22.174Z,1.40
2023-03-27T07:35:49.309Z,1.20
2023-03-27T07:38:17.414Z,1.20
2023-03-27T07:40:46.200Z,1.00
2023-03-27T07:43:13.487Z,1.07
2023-03-27T07:45:42.086Z,1.20
2023-03-27T07:48:14.906Z,1.90
2023-03-27T07:50:42.272Z,1.10
2023-03-27T07:53:09.327Z,1.53
2023-03-27T07:55:41.711Z,1.77
2023-03-27T07:58:08.982Z,0.90
2023-03-27T08:00:36.270Z,1.37
2023-03-27T08:03:07.915Z,1.10
2023-03-27T08:05:37.233Z,1.33
2023-03-27T08:08:05.248Z,1.23
2023-03-27T08:10:32.287Z,1.30
2023-03-27T08:12:59.712Z,1.13
2023-03-27T08:15:27.165Z,1.13
2023-03-27T08:17:56.977Z,1.00
2023-03-27T08:20:25.228Z,0.80
2023-03-27T08:22:53.906Z,0.90
2023-03-27T08:25:24.291Z,1.07
2023-03-27T08:27:51.319Z,1.07
2023-03-27T08:30:20.271Z,0.83
2023-03-27T08:32:48.328Z,0.90
2023-03-27T08:35:17.794Z,1.20
2023-03-27T08:37:44.946Z,1.27
2023-03-27T08:40:22.038Z,1.30
2023-03-27T08:42:52.416Z,1.20
2023-03-27T08:45:24.129Z,0.90
2023-03-27T08:47:56.584Z,1.30
2023-03-27T08:50:32.209Z,1.30
2023-03-27T08:53:00.195Z,1.40
2023-03-27T08:55:38.326Z,1.30
2023-03-27T08:58:05.697Z,1.10
2023-03-27T09:00:39.760Z,1.27
2023-03-27T09:03:13.587Z,1.40
2023-03-27T09:05:45.431Z,1.23
2023-03-27T09:08:22.105Z,1.23
2023-03-27T09:10:52.912Z,1.00
2023-03-27T09:13:25.663Z,1.30
2023-03-27T09:16:00.878Z,0.93
2023-03-27T09:18:33.325Z,1.20
2023-03-27T09:21:05.856Z,1.03
2023-03-27T09:23:38.274Z,0.70
2023-03-27T09:26:10.238Z,1.10
2023-03-27T09:28:46.499Z,1.13
2023-03-27T09:31:25.033Z,1.20
2023-03-27T09:33:52.550Z,1.17
2023-03-27T09:36:19.749Z,0.90
2023-03-27T09:38:50.856Z,0.90
2023-03-27T09:41:23.732Z,1.80
2023-03-27T09:43:58.320Z,0.80
2023-03-27T09:46:27.952Z,1.40
2023-03-27T09:49:00.848Z,1.17
2023-03-27T09:51:39.582Z,1.00
2023-03-27T09:54:07.595Z,0.50
2023-03-27T09:56:40.948Z,0.90
2023-03-27T09:59:21.733Z,0.70
2023-03-27T10:01:49.818Z,0.87
2023-03-27T10:04:20.214Z,0.90
2023-03-27T10:06:49.286Z,1.33
2023-03-27T10:09:24.830Z,0.90
2023-03-27T10:12:00.958Z,1.00
2023-03-27T10:14:29.959Z,1.30
2023-03-27T10:16:57.048Z,1.07
2023-03-27T10:19:27.861Z,0.90
2023-03-27T10:21:56.562Z,1.37
2023-03-27T10:24:32.269Z,1.07
2023-03-27T10:27:01.416Z,0.70
2023-03-27T10:29:32.028Z,0.80
2023-03-27T10:32:00.875Z,0.67
2023-03-27T10:34:32.568Z,0.87
2023-03-27T10:37:01.593Z,1.00
2023-03-27T10:39:33.032Z,0.70
2023-03-27T10:42:07.406Z,0.67
2023-03-27T10:44:37.624Z,0.53
2023-03-27T10:47:06.166Z,1.13
2023-03-27T10:49:41.615Z,0.70
2023-03-27T10:52:18.143Z,0.80
2023-03-27T10:54:47.547Z,1.07
2023-03-27T10:57:19.706Z,0.80
2023-03-27T10:59:51.539Z,0.70
2023-03-27T11:02:23.244Z,1.10
2023-03-27T11:04:54.800Z,0.53
2023-03-27T11:07:28.042Z,0.90
2023-03-27T11:10:01.730Z,0.73
2023-03-27T11:12:33.149Z,0.40
2023-03-27T11:15:04.758Z,0.90
2023-03-27T11:17:38.495Z,1.17
2023-03-27T11:20:16.496Z,0.70
2023-03-27T11:22:47.909Z,0.60
2023-03-27T11:25:21.059Z,0.60
2023-03-27T11:27:58.348Z,0.80
2023-03-27T11:30:33.693Z,0.87
2023-03-27T11:33:15.215Z,0.77
2023-03-27T11:35:50.198Z,0.70
2023-03-27T11:38:20.637Z,0.70
2023-03-27T11:40:49.589Z,0.83
2023-03-27T11:43:19.947Z,0.57
2023-03-27T11:45:55.975Z,1.30
2023-03-27T11:48:48.334Z,0.80
2023-03-27T11:51:24.270Z,0.60
2023-03-27T11:54:01.775Z,0.88
2023-03-27T11:56:43.695Z,0.90
2023-03-27T11:59:42.588Z,0.63
2023-03-27T12:02:41.464Z,0.50
2023-03-27T12:05:19.112Z,0.47
2023-03-27T12:07:58.124Z,0.80
2023-03-27T12:10:29.507Z,0.43
2023-03-27T12:13:28.851Z,0.47
2023-03-27T12:16:15.018Z,0.43
2023-03-27T12:19:02.000Z,0.60
2023-03-27T12:21:50.170Z,0.60
2023-03-27T12:24:32.931Z,0.63
2023-03-27T12:27:45.100Z,0.70
2023-03-27T12:30:26.495Z,0.70
2023-03-27T12:33:25.544Z,0.80
2023-03-27T12:35:57.867Z,0.90
2023-03-27T12:38:29.429Z,0.57
2023-03-27T12:41:18.888Z,0.90
2023-03-27T12:43:47.499Z,0.93
2023-03-27T12:46:19.837Z,0.67
2023-03-27T12:49:00.350Z,0.73
2023-03-27T12:51:43.286Z,0.73
2023-03-27T12:54:27.770Z,0.80
2023-03-27T12:57:05.909Z,0.90
2023-03-27T12:59:36.878Z,0.60
2023-03-27T13:02:49.903Z,0.57
2023-03-27T13:05:55.690Z,0.80
2023-03-27T13:08:37.833Z,0.73
2023-03-27T13:11:19.278Z,0.80
2023-03-27T13:14:21.456Z,0.70
2023-03-27T13:17:09.615Z,0.60
2023-03-27T13:19:52.483Z,0.50
2023-03-27T13:22:37.278Z,0.80
2023-03-27T13:25:35.301Z,0.83
2023-03-27T13:28:29.711Z,0.70
2023-03-27T13:30:58.054Z,0.87
2023-03-27T13:33:28.020Z,1.00
2023-03-27T13:36:11.625Z,0.70
2023-03-27T13:39:18.273Z,0.60
2023-03-27T13:42:06.095Z,0.87
2023-03-27T13:44:43.005Z,0.83
2023-03-27T13:47:40.408Z,0.80
2023-03-27T13:50:24.787Z,0.77
2023-03-27T13:53:09.381Z,1.20
2023-03-27T13:56:02.447Z,0.93
2023-03-27T13:58:45.999Z,0.60
2023-03-27T14:01:28.133Z,0.60
2023-03-27T14:04:10.245Z,0.60
2023-03-27T14:07:12.980Z,0.90
2023-03-27T14:09:56.307Z,0.90
2023-03-27T14:12:38.179Z,1.10
2023-03-27T14:15:21.855Z,1.30
2023-03-27T14:18:19.861Z,2.00
2023-03-27T14:20:51.508Z,2.20
2023-03-27T14:23:23.412Z,1.70
2023-03-27T14:26:00.373Z,4.10
2023-03-27T14:28:34.547Z,6.57
2023-03-27T14:31:06.100Z,1.30
2023-03-27T14:33:34.450Z,1.10
2023-03-27T14:36:04.003Z,0.90
2023-03-27T14:38:33.392Z,1.20
2023-03-27T14:41:01.964Z,0.83
2023-03-27T14:43:31.749Z,0.90
2023-03-27T14:46:02.363Z,0.90
2023-03-27T14:48:33.000Z,0.60
2023-03-27T14:51:03.212Z,1.10
2023-03-27T14:53:36.620Z,0.70
2023-03-27T14:56:12.890Z,0.87
2023-03-27T14:58:46.524Z,0.90
2023-03-27T15:01:17.326Z,0.50
2023-03-27T15:03:45.931Z,0.97
2023-03-27T15:06:14.796Z,0.73
2023-03-27T15:08:46.523Z,0.70
2023-03-27T15:11:16.816Z,0.80
2023-03-27T15:13:48.008Z,0.93
2023-03-27T15:16:19.414Z,0.90
2023-03-27T15:18:56.515Z,1.77
2023-03-27T15:21:34.822Z,0.97
2023-03-27T15:24:05.973Z,0.93
2023-03-27T15:26:35.128Z,1.07
2023-03-27T15:29:08.925Z,1.40
2023-03-27T15:31:37.133Z,1.33
2023-03-27T15:34:09.068Z,1.40
2023-03-27T15:36:38.418Z,0.90
2023-03-27T15:39:07.263Z,1.10
2023-03-27T15:41:42.524Z,0.60
2023-03-27T15:44:16.239Z,0.50
2023-03-27T15:46:54.076Z,0.47
2023-03-27T15:49:30.851Z,0.50
2023-03-27T15:51:59.534Z,0.50
2023-03-27T15:54:32.308Z,0.63
2023-03-27T15:57:09.145Z,0.53
2023-03-27T15:59:52.121Z,0.30
2023-03-27T16:02:23.796Z,0.60
2023-03-27T16:04:56.057Z,0.50
2023-03-27T16:07:25.576Z,0.40
2023-03-27T16:09:55.465Z,0.30
2023-03-27T16:12:28.223Z,0.70
2023-03-27T16:14:57.574Z,0.40
2023-03-27T16:17:32.383Z,0.30
2023-03-27T16:20:01.533Z,0.50
2023-03-27T16:22:31.213Z,0.50
2023-03-27T16:24:59.710Z,0.50
2023-03-27T16:27:31.552Z,0.30
2023-03-27T16:29:59.784Z,0.30
2023-03-27T16:32:26.681Z,0.50
2023-03-27T16:34:53.561Z,0.40
2023-03-27T16:37:23.204Z,0.37
2023-03-27T16:39:50.310Z,0.40
2023-03-27T16:42:19.619Z,0.37
2023-03-27T16:44:46.702Z,0.50
2023-03-27T16:47:16.527Z,0.70
2023-03-27T16:49:43.982Z,0.60
2023-03-27T16:52:11.059Z,0.60
2023-03-27T16:54:38.013Z,0.57
2023-03-27T16:57:04.952Z,0.80
2023-03-27T16:59:31.948Z,1.13
2023-03-27T17:01:59.043Z,0.77
2023-03-27T17:04:28.272Z,0.83
2023-03-27T17:06:55.654Z,0.60
2023-03-27T17:09:22.933Z,0.53
2023-03-27T17:11:50.166Z,0.67
2023-03-27T17:14:17.141Z,0.50
2023-03-27T17:16:44.538Z,0.60
2023-03-27T17:19:11.472Z,0.60
2023-03-27T17:21:39.738Z,0.77
2023-03-27T17:24:06.995Z,0.40
2023-03-27T17:26:35.525Z,0.80
2023-03-27T17:29:05.177Z,0.70
2023-03-27T17:31:32.738Z,0.50
2023-03-27T17:33:59.844Z,0.73
2023-03-27T17:36:39.118Z,0.80
2023-03-27T17:39:10.299Z,0.40
2023-03-27T17:41:37.222Z,0.70
2023-03-27T17:44:05.643Z,0.60
2023-03-27T17:46:34.289Z,0.77
2023-03-27T17:49:01.347Z,0.70
2023-03-27T17:51:28.214Z,0.67
2023-03-27T17:53:55.460Z,0.50
2023-03-27T17:56:23.912Z,0.60
2023-03-27T17:58:50.885Z,0.60
2023-03-27T18:01:19.829Z,0.73
2023-03-27T18:03:47.384Z,0.70
2023-03-27T18:06:14.905Z,0.60
2023-03-27T18:08:42.033Z,0.70
2023-03-27T18:11:09.580Z,2.10
2023-03-27T18:13:38.173Z,1.43
2023-03-27T18:16:08.558Z,3.43
2023-03-27T18:18:36.297Z,0.90
2023-03-27T18:21:03.722Z,1.00
2023-03-27T18:23:31.366Z,1.00
2023-03-27T18:25:58.510Z,1.00
2023-03-27T18:28:25.726Z,0.80
2023-03-27T18:31:00.767Z,0.80
2023-03-27T18:33:27.968Z,0.73
2023-03-27T18:35:56.169Z,0.87
2023-03-27T18:38:24.056Z,1.00
2023-03-27T18:40:51.365Z,0.97
2023-03-27T18:43:18.248Z,0.70
2023-03-27T18:45:45.286Z,0.80
2023-03-27T18:48:13.567Z,0.90
2023-03-27T18:50:40.476Z,1.07
2023-03-27T18:53:07.449Z,1.33
2023-03-27T18:55:34.343Z,1.30
2023-03-27T18:58:01.384Z,1.20
2023-03-27T19:00:28.697Z,1.27
2023-03-27T19:02:55.673Z,0.80
2023-03-27T19:05:23.914Z,1.10
2023-03-27T19:07:51.245Z,0.90
2023-03-27T19:10:18.195Z,1.13
2023-03-27T19:12:45.177Z,1.27
2023-03-27T19:17:46.171Z,1.20
2023-03-27T19:20:13.754Z,1.00
2023-03-27T19:22:42.001Z,1.43
2023-03-27T19:25:09.771Z,2.20
2023-03-27T19:27:39.187Z,1.90
2023-03-27T19:30:08.502Z,2.60
2023-03-27T19:32:35.597Z,1.60
2023-03-27T19:35:03.031Z,1.30
2023-03-27T19:37:29.976Z,1.10
2023-03-27T19:40:01.002Z,1.67
2023-03-27T19:42:28.967Z,1.80
2023-03-27T19:44:56.756Z,1.90
2023-03-27T19:47:23.706Z,1.30
2023-03-27T19:49:50.839Z,1.80
2023-03-27T19:52:19.729Z,1.50
2023-03-27T19:54:46.725Z,1.83
2023-03-27T19:57:15.494Z,1.97
2023-03-27T19:59:42.411Z,1.70
2023-03-27T20:02:11.149Z,1.80
2023-03-27T20:04:38.184Z,1.43
2023-03-27T20:07:07.073Z,1.77
2023-03-27T20:09:34.152Z,1.73
2023-03-27T20:12:01.354Z,1.90
2023-03-27T20:14:29.818Z,1.87
2023-03-27T20:16:56.860Z,2.13
2023-03-27T20:19:30.482Z,1.90
2023-03-27T20:21:57.664Z,2.10
2023-03-27T20:24:24.959Z,1.77
2023-03-27T20:26:53.997Z,2.00
2023-03-27T20:29:23.053Z,1.90
2023-03-27T20:31:51.565Z,1.87
2023-03-27T20:34:19.837Z,1.77
2023-03-27T20:36:47.605Z,1.70
2023-03-27T20:39:14.855Z,1.70
2023-03-27T20:41:41.977Z,1.70
2023-03-27T20:44:16.360Z,1.60
2023-03-27T20:46:47.475Z,2.10
2023-03-27T20:51:57.201Z,1.90
2023-03-27T20:54:24.210Z,2.13
2023-03-27T20:56:51.363Z,1.80
2023-03-27T20:59:18.497Z,1.80
2023-03-27T21:01:46.399Z,2.00
2023-03-27T21:04:14.611Z,1.70
2023-03-27T21:06:43.583Z,1.57
2023-03-27T21:09:13.833Z,1.77
2023-03-27T21:11:41.087Z,1.90
2023-03-27T21:14:08.277Z,1.80
2023-03-27T21:16:35.316Z,2.07
2023-03-27T21:19:02.316Z,2.00
2023-03-27T21:21:29.258Z,1.87
2023-03-27T21:23:57.592Z,2.00
2023-03-27T21:26:24.562Z,1.80
2023-03-27T21:28:52.808Z,1.90
2023-03-27T21:31:20.346Z,2.00
2023-03-27T21:33:47.708Z,2.03
2023-03-27T21:36:14.912Z,2.30
2023-03-27T21:38:41.930Z,2.07
2023-03-27T21:41:11.568Z,2.60
2023-03-27T21:43:38.515Z,2.20
2023-03-27T21:46:06.276Z,2.33
2023-03-27T21:48:33.226Z,2.37
2023-03-27T21:51:01.004Z,2.40
2023-03-27T21:53:28.655Z,2.53
2023-03-27T21:55:56.597Z,2.53
2023-03-27T21:58:25.443Z,2.30
2023-03-27T22:00:54.910Z,2.10
2023-03-27T22:03:21.735Z,2.77
2023-03-27T22:06:07.682Z,2.17
2023-03-27T22:08:37.178Z,2.20
2023-03-27T22:11:04.591Z,2.20
2023-03-27T22:13:34.543Z,2.30
2023-03-27T22:16:01.961Z,1.97
2023-03-27T22:18:31.370Z,2.27
2023-03-27T22:20:58.217Z,2.30
2023-03-27T22:23:25.283Z,2.30
2023-03-27T22:25:53.791Z,1.87
2023-03-27T22:28:20.635Z,2.23
2023-03-27T22:30:50.798Z,2.87
2023-03-27T22:33:24.135Z,2.63
2023-03-27T22:35:51.505Z,2.60
2023-03-27T22:38:18.439Z,2.20
2023-03-27T22:40:45.494Z,2.10
2023-03-27T22:43:22.383Z,2.67
2023-03-27T22:45:52.619Z,2.30
2023-03-27T22:48:19.494Z,1.97
2023-03-27T22:50:53.435Z,2.67
2023-03-27T22:53:20.504Z,2.10
2023-03-27T22:55:48.419Z,1.83
2023-03-27T22:58:15.515Z,2.33
2023-03-27T23:00:45.300Z,2.07
2023-03-27T23:03:13.739Z,2.73
2023-03-27T23:05:41.171Z,2.80
2023-03-27T23:08:08.490Z,1.70
2023-03-27T23:10:35.733Z,1.90
2023-03-27T23:13:03.101Z,2.07
2023-03-27T23:15:30.792Z,2.17
2023-03-27T23:17:57.841Z,2.03
2023-03-27T23:20:26.634Z,2.50
2023-03-27T23:22:53.583Z,2.33
2023-03-27T23:25:20.482Z,2.40
2023-03-27T23:27:47.577Z,2.63
2023-03-27T23:30:14.699Z,2.37
2023-03-27T23:32:41.611Z,2.10
2023-03-27T23:35:11.312Z,2.13
2023-03-27T23:37:39.505Z,2.57
2023-03-27T23:40:08.122Z,2.30
2023-03-27T23:42:35.078Z,2.40
2023-03-27T23:45:01.929Z,3.03
2023-03-27T23:47:28.848Z,2.50
2023-03-27T23:49:55.727Z,2.17
2023-03-27T23:52:22.562Z,1.90
2023-03-27T23:54:50.740Z,2.33
2023-03-27T23:57:17.738Z,2.50
2023-03-27T23:59:44.761Z,2.60
